Time;durP1;ratioP1;P1;durP2;ratioP2;P2;SDS_P1;SDS_P2;PMS_P1;PMS_P2;Temp;Humidity;BMP_temperature;BMP_pressure;BME280_temperature;BME280_humidity;BME280_pressure;Samples;Min_cycle;Max_cycle;Signal;HPM_P1;HPM_P2
2023/11/06 00:02:17;;;;;;;;;;;22.40;68.70;;;;;;5002459;28;2398;-68
2023/11/06 00:04:42;;;;;;;;;;;22.50;68.70;;;;;;5000862;28;1312;-68
2023/11/06 00:07:08;;;;;;;;;;;22.50;68.70;;;;;;5002255;28;1484;-68
2023/11/06 00:09:33;;;;;;;;;;;22.50;68.70;;;;;;5001115;28;1244;-68
2023/11/06 00:11:59;;;;;;;;;;;22.50;68.80;;;;;;4999287;28;1791;-68
2023/11/06 00:14:24;;;;;;;;;;;22.50;69.60;;;;;;5001351;28;1489;-68
2023/11/06 00:16:51;;;;;;;;;;;22.50;68.80;;;;;;4999385;28;1407;-68
2023/11/06 00:19:16;;;;;;;;;;;22.50;68.90;;;;;;5000723;28;1486;-68
2023/11/06 00:21:42;;;;;;;;;;;22.50;68.90;;;;;;5001519;28;1752;-67
2023/11/06 00:24:08;;;;;;;;;;;22.60;68.90;;;;;;5001995;28;1963;-68
2023/11/06 00:26:33;;;;;;;;;;;22.60;68.90;;;;;;5000399;28;1392;-68
2023/11/06 00:29:00;;;;;;;;;;;22.60;68.90;;;;;;5000385;28;1367;-68
2023/11/06 00:31:26;;;;;;;;;;;22.60;68.80;;;;;;4999862;28;1697;-68
2023/11/06 00:33:53;;;;;;;;;;;22.60;68.80;;;;;;5003329;28;1315;-68
2023/11/06 00:36:19;;;;;;;;;;;22.60;68.70;;;;;;5002107;28;1202;-68
2023/11/06 00:38:44;;;;;;;;;;;22.70;68.80;;;;;;5001589;28;1493;-68
2023/11/06 00:41:11;;;;;;;;;;;22.70;68.80;;;;;;5000722;28;1377;-67
2023/11/06 00:43:37;;;;;;;;;;;22.70;68.70;;;;;;5000698;28;1979;-68
2023/11/06 00:46:03;;;;;;;;;;;22.70;68.70;;;;;;5002026;28;1453;-67
2023/11/06 00:48:29;;;;;;;;;;;22.70;68.70;;;;;;5003119;28;1376;-67
2023/11/06 00:50:54;;;;;;;;;;;22.80;68.70;;;;;;4999076;28;1367;-68
2023/11/06 00:53:20;;;;;;;;;;;22.70;68.70;;;;;;5002942;28;1235;-67
2023/11/06 00:55:45;;;;;;;;;;;22.80;68.70;;;;;;5000212;28;1084;-68
2023/11/06 00:58:10;;;;;;;;;;;22.80;68.60;;;;;;4998251;28;1318;-68
2023/11/06 01:00:37;;;;;;;;;;;22.80;68.60;;;;;;5004047;28;1331;-68
2023/11/06 01:03:03;;;;;;;;;;;22.80;68.60;;;;;;5003944;28;1895;-68
2023/11/06 01:05:31;;;;;;;;;;;22.80;69.20;;;;;;5002189;28;997;-67
2023/11/06 01:07:57;;;;;;;;;;;22.90;68.60;;;;;;5001273;28;1294;-68
2023/11/06 01:10:24;;;;;;;;;;;22.90;68.50;;;;;;5003198;28;1496;-68
2023/11/06 01:12:51;;;;;;;;;;;22.90;68.40;;;;;;5006288;28;1357;-68
2023/11/06 01:15:17;;;;;;;;;;;22.90;68.40;;;;;;5003387;28;1536;-68
2023/11/06 01:17:43;;;;;;;;;;;22.90;68.40;;;;;;5004676;28;2091;-68
2023/11/06 01:20:10;;;;;;;;;;;22.80;68.40;;;;;;5003378;28;1398;-67
2023/11/06 01:22:35;;;;;;;;;;;22.80;67.00;;;;;;5002627;28;1894;-68
2023/11/06 01:25:01;;;;;;;;;;;22.80;66.10;;;;;;5003099;28;1433;-68
2023/11/06 01:27:26;;;;;;;;;;;22.70;66.30;;;;;;5005536;28;2065;-68
2023/11/06 01:29:52;;;;;;;;;;;22.70;66.60;;;;;;5002177;28;1498;-68
2023/11/06 01:32:20;;;;;;;;;;;22.60;66.80;;;;;;5005269;28;1779;-68
2023/11/06 01:34:46;;;;;;;;;;;22.60;67.00;;;;;;5006657;28;1196;-67
2023/11/06 01:37:11;;;;;;;;;;;22.50;67.00;;;;;;5002235;28;1228;-67
2023/11/06 01:39:37;;;;;;;;;;;22.50;67.10;;;;;;5003151;28;1547;-68
2023/11/06 01:42:02;;;;;;;;;;;22.40;67.20;;;;;;5003912;28;1422;-68
2023/11/06 01:44:28;;;;;;;;;;;22.40;67.30;;;;;;5003582;28;1902;-68
2023/11/06 01:46:53;;;;;;;;;;;22.30;67.40;;;;;;5003796;28;1140;-69
2023/11/06 01:49:20;;;;;;;;;;;22.30;67.50;;;;;;5008578;28;1241;-68
2023/11/06 01:51:46;;;;;;;;;;;22.20;67.60;;;;;;5006348;28;1693;-68
2023/11/06 01:54:12;;;;;;;;;;;22.20;67.70;;;;;;5000728;28;1395;-67
2023/11/06 01:56:37;;;;;;;;;;;22.20;67.80;;;;;;5007939;28;1437;-68
2023/11/06 01:59:03;;;;;;;;;;;22.20;67.90;;;;;;5009569;28;1494;-68
2023/11/06 02:01:29;;;;;;;;;;;22.10;67.90;;;;;;5000871;28;1478;-68
2023/11/06 02:03:55;;;;;;;;;;;22.10;68.10;;;;;;5001739;28;1906;-68
2023/11/06 02:06:23;;;;;;;;;;;22.10;68.10;;;;;;5002576;28;1521;-68
2023/11/06 02:08:48;;;;;;;;;;;22.00;68.10;;;;;;5005269;28;1232;-68
2023/11/06 02:11:14;;;;;;;;;;;22.00;68.20;;;;;;5003267;28;1618;-68
2023/11/06 02:13:39;;;;;;;;;;;22.00;68.30;;;;;;5001800;28;1131;-68
2023/11/06 02:16:05;;;;;;;;;;;21.90;68.30;;;;;;5002350;28;1310;-68
2023/11/06 02:18:30;;;;;;;;;;;21.90;68.40;;;;;;5004392;28;1310;-68
2023/11/06 02:20:57;;;;;;;;;;;21.90;69.20;;;;;;5002954;28;1582;-68
2023/11/06 02:23:24;;;;;;;;;;;21.90;68.50;;;;;;5006068;28;1969;-68
2023/11/06 02:25:52;;;;;;;;;;;21.80;68.50;;;;;;5000979;28;1369;-68
2023/11/06 02:28:17;;;;;;;;;;;21.80;68.60;;;;;;5001959;28;1506;-68
2023/11/06 02:30:43;;;;;;;;;;;21.80;68.60;;;;;;5002248;28;1467;-67
2023/11/06 02:33:09;;;;;;;;;;;21.80;68.70;;;;;;5003808;28;1218;-68
2023/11/06 02:35:34;;;;;;;;;;;21.80;68.70;;;;;;5003169;28;1396;-68
2023/11/06 02:38:00;;;;;;;;;;;21.80;68.70;;;;;;5001898;28;1339;-68
2023/11/06 02:40:26;;;;;;;;;;;21.70;68.70;;;;;;5003065;28;2151;-68
2023/11/06 02:42:51;;;;;;;;;;;21.70;68.80;;;;;;5002620;28;1974;-68
2023/11/06 02:45:17;;;;;;;;;;;21.70;68.90;;;;;;5002369;28;1648;-68
2023/11/06 02:47:42;;;;;;;;;;;21.70;68.90;;;;;;5003017;28;1198;-68
2023/11/06 02:50:08;;;;;;;;;;;21.70;68.90;;;;;;5001637;28;1974;-68
2023/11/06 02:52:33;;;;;;;;;;;21.70;69.00;;;;;;5004755;28;1383;-68
2023/11/06 02:54:59;;;;;;;;;;;21.60;68.90;;;;;;5002781;28;1389;-68
2023/11/06 02:57:24;;;;;;;;;;;21.60;69.00;;;;;;5000435;28;1986;-67
2023/11/06 02:59:50;;;;;;;;;;;21.60;69.00;;;;;;5002568;28;1449;-67
2023/11/06 03:02:15;;;;;;;;;;;21.60;69.00;;;;;;5000156;28;1902;-68
2023/11/06 03:04:41;;;;;;;;;;;21.60;69.10;;;;;;5004005;28;1316;-68
2023/11/06 03:07:07;;;;;;;;;;;21.60;69.10;;;;;;5001883;28;1257;-68
2023/11/06 03:09:32;;;;;;;;;;;21.60;69.10;;;;;;5000906;28;1321;-68
2023/11/06 03:11:58;;;;;;;;;;;21.60;69.20;;;;;;5004809;28;1416;-67
2023/11/06 03:14:23;;;;;;;;;;;21.50;69.20;;;;;;5004158;28;1319;-67
2023/11/06 03:16:49;;;;;;;;;;;21.50;69.20;;;;;;5003224;28;1390;-67
2023/11/06 03:19:14;;;;;;;;;;;21.50;69.20;;;;;;5001995;28;1473;-68
2023/11/06 03:21:40;;;;;;;;;;;21.50;69.20;;;;;;5001619;28;1662;-67
2023/11/06 03:24:05;;;;;;;;;;;21.50;69.30;;;;;;5002220;28;1910;-67
2023/11/06 03:26:31;;;;;;;;;;;21.50;69.30;;;;;;5003287;28;1430;-66
2023/11/06 03:28:56;;;;;;;;;;;21.50;69.40;;;;;;5001802;28;1521;-66
2023/11/06 03:31:22;;;;;;;;;;;21.50;69.40;;;;;;5003633;28;1435;-66
2023/11/06 03:33:47;;;;;;;;;;;21.50;69.40;;;;;;5001997;28;1359;-66
2023/11/06 03:36:13;;;;;;;;;;;21.50;69.40;;;;;;5000349;28;1240;-67
2023/11/06 03:38:38;;;;;;;;;;;21.50;69.40;;;;;;5001479;28;1157;-67
2023/11/06 03:41:04;;;;;;;;;;;21.50;69.50;;;;;;5005842;28;1359;-66
2023/11/06 03:43:31;;;;;;;;;;;21.50;69.50;;;;;;5001557;28;1910;-67
2023/11/06 03:45:57;;;;;;;;;;;21.50;69.50;;;;;;5000368;28;939;-67
2023/11/06 03:48:23;;;;;;;;;;;21.40;69.50;;;;;;5000532;28;1250;-68
2023/11/06 03:50:48;;;;;;;;;;;21.40;69.60;;;;;;5004308;28;1815;-67
2023/11/06 03:53:13;;;;;;;;;;;21.40;69.50;;;;;;5002368;28;1490;-67
2023/11/06 03:55:39;;;;;;;;;;;21.40;69.50;;;;;;5000333;28;1525;-67
2023/11/06 03:58:04;;;;;;;;;;;21.40;69.50;;;;;;5002127;28;1541;-67
2023/11/06 04:00:30;;;;;;;;;;;21.40;69.50;;;;;;5001827;28;1708;-67
2023/11/06 04:02:56;;;;;;;;;;;21.40;69.60;;;;;;5002318;28;1926;-67
2023/11/06 04:05:21;;;;;;;;;;;21.40;69.70;;;;;;5003122;28;896;-67
2023/11/06 04:07:47;;;;;;;;;;;21.40;69.60;;;;;;4998544;28;907;-67
2023/11/06 04:10:12;;;;;;;;;;;21.30;69.60;;;;;;5000356;28;1215;-67
2023/11/06 04:12:38;;;;;;;;;;;21.30;69.60;;;;;;5000046;28;1379;-67
2023/11/06 04:15:05;;;;;;;;;;;21.30;69.60;;;;;;5003060;28;1388;-67
2023/11/06 04:17:31;;;;;;;;;;;21.30;69.60;;;;;;5002311;28;1512;-67
2023/11/06 04:19:56;;;;;;;;;;;21.30;69.70;;;;;;5000031;28;1510;-68
2023/11/06 04:22:22;;;;;;;;;;;21.30;69.70;;;;;;5017506;28;1902;-68
2023/11/06 04:24:47;;;;;;;;;;;21.30;69.70;;;;;;4998828;28;1248;-68
2023/11/06 04:27:13;;;;;;;;;;;21.30;69.80;;;;;;5001901;28;1782;-67
2023/11/06 04:29:38;;;;;;;;;;;21.30;69.80;;;;;;5002569;28;915;-67
2023/11/06 04:32:04;;;;;;;;;;;21.30;69.80;;;;;;5000739;28;1300;-67
2023/11/06 04:34:29;;;;;;;;;;;21.30;69.80;;;;;;5000719;28;967;-67
2023/11/06 04:36:55;;;;;;;;;;;21.30;69.80;;;;;;5000707;28;1181;-67
2023/11/06 04:39:21;;;;;;;;;;;21.30;69.80;;;;;;5002065;28;1164;-67
2023/11/06 04:41:46;;;;;;;;;;;21.30;69.80;;;;;;4998916;28;1273;-68
2023/11/06 04:44:12;;;;;;;;;;;21.20;69.80;;;;;;5003871;28;1902;-68
2023/11/06 04:46:37;;;;;;;;;;;21.20;69.80;;;;;;5005222;28;1248;-67
2023/11/06 04:49:03;;;;;;;;;;;21.20;69.80;;;;;;5006089;28;1268;-67
2023/11/06 04:51:29;;;;;;;;;;;21.30;69.90;;;;;;5004863;28;1405;-68
2023/11/06 04:53:54;;;;;;;;;;;21.20;69.90;;;;;;5005053;28;1454;-67
2023/11/06 04:56:20;;;;;;;;;;;21.20;69.90;;;;;;5005278;28;1531;-67
2023/11/06 04:58:45;;;;;;;;;;;21.20;69.90;;;;;;5004160;28;1255;-67
2023/11/06 05:01:11;;;;;;;;;;;21.20;69.90;;;;;;5006967;28;1379;-68
2023/11/06 05:03:38;;;;;;;;;;;21.20;69.90;;;;;;5004294;28;1898;-68
2023/11/06 05:06:04;;;;;;;;;;;21.20;69.90;;;;;;5003625;28;1425;-68
2023/11/06 05:08:30;;;;;;;;;;;21.20;70.00;;;;;;5004190;28;1185;-68
2023/11/06 05:10:55;;;;;;;;;;;21.20;69.90;;;;;;5004772;28;1492;-68
2023/11/06 05:13:21;;;;;;;;;;;21.20;70.00;;;;;;5002640;28;1775;-68
2023/11/06 05:15:47;;;;;;;;;;;21.20;70.00;;;;;;5005824;28;1266;-67
2023/11/06 05:18:12;;;;;;;;;;;21.20;70.00;;;;;;5005212;28;1485;-68
2023/11/06 05:20:41;;;;;;;;;;;21.20;70.00;;;;;;5003524;28;1335;-68
2023/11/06 05:23:06;;;;;;;;;;;21.10;70.00;;;;;;5006022;28;1899;-68
2023/11/06 05:25:32;;;;;;;;;;;21.20;70.00;;;;;;5005814;28;1857;-68
2023/11/06 05:27:59;;;;;;;;;;;21.10;70.00;;;;;;5005317;28;1535;-67
2023/11/06 05:30:24;;;;;;;;;;;21.10;70.00;;;;;;5018673;28;1426;-68
2023/11/06 05:32:50;;;;;;;;;;;21.10;70.00;;;;;;5005233;28;1339;-68
2023/11/06 05:35:15;;;;;;;;;;;21.10;70.00;;;;;;5008770;28;1658;-67
2023/11/06 05:37:41;;;;;;;;;;;21.10;70.00;;;;;;4999546;28;1647;-67
2023/11/06 05:40:08;;;;;;;;;;;21.10;70.00;;;;;;5004167;28;1529;-67
2023/11/06 05:42:34;;;;;;;;;;;21.10;70.10;;;;;;5004921;28;1958;-67
2023/11/06 05:44:59;;;;;;;;;;;21.10;70.10;;;;;;5021868;28;1413;-67
2023/11/06 05:47:25;;;;;;;;;;;21.10;70.10;;;;;;5004185;28;1400;-67
2023/11/06 05:49:50;;;;;;;;;;;21.10;70.10;;;;;;5004775;28;1443;-67
2023/11/06 05:52:16;;;;;;;;;;;21.10;70.10;;;;;;5006282;28;1401;-67
2023/11/06 05:54:41;;;;;;;;;;;21.10;70.10;;;;;;5005481;28;1680;-67
2023/11/06 05:57:07;;;;;;;;;;;21.10;70.10;;;;;;5005909;28;1474;-67
2023/11/06 05:59:32;;;;;;;;;;;21.10;70.10;;;;;;5004758;28;1395;-67
2023/11/06 06:01:58;;;;;;;;;;;21.10;70.10;;;;;;5006624;28;1417;-67
2023/11/06 06:04:24;;;;;;;;;;;21.10;70.20;;;;;;5005301;28;1973;-67
2023/11/06 06:06:54;;;;;;;;;;;21.10;70.10;;;;;;5001678;28;1471;-67
2023/11/06 06:09:21;;;;;;;;;;;21.10;70.20;;;;;;5005673;28;1331;-67
2023/11/06 06:11:47;;;;;;;;;;;21.10;70.20;;;;;;5004438;28;1281;-68
2023/11/06 06:14:12;;;;;;;;;;;21.10;70.20;;;;;;5005051;28;1460;-67
2023/11/06 06:16:38;;;;;;;;;;;21.00;70.10;;;;;;5003073;28;1345;-68
2023/11/06 06:19:06;;;;;;;;;;;21.10;70.20;;;;;;5005408;28;1621;-68
2023/11/06 06:21:31;;;;;;;;;;;21.00;70.20;;;;;;5004615;28;1383;-68
2023/11/06 06:23:57;;;;;;;;;;;21.10;70.20;;;;;;5003616;28;1975;-68
2023/11/06 06:26:23;;;;;;;;;;;21.00;70.20;;;;;;5004381;28;1647;-67
2023/11/06 06:28:51;;;;;;;;;;;21.00;70.20;;;;;;5006986;28;1469;-67
2023/11/06 06:31:18;;;;;;;;;;;21.00;70.20;;;;;;5003053;28;1473;-67
2023/11/06 06:33:43;;;;;;;;;;;21.00;70.20;;;;;;5003785;28;1370;-67
2023/11/06 06:36:12;;;;;;;;;;;21.00;70.20;;;;;;5004594;28;1381;-67
2023/11/06 06:38:37;;;;;;;;;;;21.00;70.30;;;;;;5002480;28;1485;-67
2023/11/06 06:41:03;;;;;;;;;;;21.00;70.20;;;;;;5001987;28;1285;-67
2023/11/06 06:43:29;;;;;;;;;;;21.00;70.20;;;;;;5003828;28;1959;-67
2023/11/06 06:45:55;;;;;;;;;;;21.00;70.20;;;;;;5001953;28;1316;-67
2023/11/06 06:48:20;;;;;;;;;;;21.00;70.20;;;;;;5001005;28;1253;-68
2023/11/06 06:50:46;;;;;;;;;;;21.00;70.20;;;;;;5001764;28;1386;-68
2023/11/06 06:53:11;;;;;;;;;;;21.00;70.20;;;;;;5004855;28;1337;-67
2023/11/06 06:55:37;;;;;;;;;;;21.00;70.30;;;;;;5004646;28;1378;-67
2023/11/06 06:58:04;;;;;;;;;;;21.00;70.30;;;;;;5004440;28;1381;-66
2023/11/06 07:00:31;;;;;;;;;;;21.00;70.20;;;;;;5001758;28;1468;-66
2023/11/06 07:02:57;;;;;;;;;;;21.00;67.90;;;;;;5003352;28;1973;-67
2023/11/06 07:05:22;;;;;;;;;;;21.00;64.50;;;;;;5000871;28;1234;-67
2023/11/06 07:07:48;;;;;;;;;;;20.90;64.80;;;;;;5001868;28;1161;-67
2023/11/06 07:10:13;;;;;;;;;;;20.90;65.20;;;;;;4993254;28;1920;-70
2023/11/06 07:12:39;;;;;;;;;;;20.90;65.40;;;;;;5004847;28;2175;-70
2023/11/06 07:15:06;;;;;;;;;;;20.90;65.90;;;;;;5000885;28;1354;-67
2023/11/06 07:17:31;;;;;;;;;;;20.90;66.20;;;;;;5001436;28;1421;-67
2023/11/06 07:19:57;;;;;;;;;;;20.90;66.30;;;;;;4999829;28;1306;-68
2023/11/06 07:22:22;;;;;;;;;;;21.00;66.40;;;;;;5002737;28;1977;-68
2023/11/06 07:24:48;;;;;;;;;;;21.00;66.40;;;;;;5004676;28;1000;-69
2023/11/06 07:27:13;;;;;;;;;;;21.00;66.60;;;;;;5001214;28;1080;-71
2023/11/06 07:29:39;;;;;;;;;;;21.00;66.70;;;;;;5004204;28;1060;-71
2023/11/06 07:32:05;;;;;;;;;;;21.00;66.80;;;;;;5001834;28;1367;-70
2023/11/06 07:34:30;;;;;;;;;;;21.00;66.90;;;;;;5004139;28;1066;-69
2023/11/06 07:36:56;;;;;;;;;;;21.00;66.90;;;;;;4999899;28;1387;-69
2023/11/06 07:39:21;;;;;;;;;;;21.10;67.10;;;;;;5003473;28;1336;-70
2023/11/06 07:41:47;;;;;;;;;;;21.10;67.10;;;;;;5000515;28;1280;-70
2023/11/06 07:44:12;;;;;;;;;;;21.10;67.20;;;;;;5005141;28;2029;-70
2023/11/06 07:46:38;;;;;;;;;;;21.10;67.20;;;;;;4997193;28;1246;-68
2023/11/06 07:49:03;;;;;;;;;;;21.20;68.10;;;;;;5001050;28;1205;-68
2023/11/06 07:51:29;;;;;;;;;;;21.10;67.20;;;;;;4998618;28;1494;-68
2023/11/06 07:53:54;;;;;;;;;;;21.20;67.40;;;;;;5002341;28;1474;-68
2023/11/06 07:56:20;;;;;;;;;;;21.20;67.30;;;;;;5003359;28;1632;-68
2023/11/06 07:58:47;;;;;;;;;;;21.20;67.30;;;;;;4999482;28;1381;-69
2023/11/06 08:01:13;;;;;;;;;;;21.20;67.30;;;;;;5002176;28;1326;-68
2023/11/06 08:03:38;;;;;;;;;;;21.20;67.30;;;;;;5001074;28;1890;-68
2023/11/06 08:06:05;;;;;;;;;;;21.20;67.30;;;;;;4999350;28;1470;-68
2023/11/06 08:08:31;;;;;;;;;;;21.30;67.40;;;;;;5000024;28;1399;-68
2023/11/06 08:10:56;;;;;;;;;;;21.20;67.30;;;;;;4998503;28;1436;-69
2023/11/06 08:13:22;;;;;;;;;;;21.30;67.30;;;;;;5001357;28;1549;-69
2023/11/06 08:15:48;;;;;;;;;;;21.30;67.30;;;;;;5000324;28;1001;-69
2023/11/06 08:18:13;;;;;;;;;;;21.30;68.10;;;;;;4994710;28;1568;-69
2023/11/06 08:20:39;;;;;;;;;;;21.30;67.30;;;;;;5008233;28;1443;-69
2023/11/06 08:23:04;;;;;;;;;;;21.30;67.30;;;;;;4998821;28;1919;-69
2023/11/06 08:25:31;;;;;;;;;;;21.30;67.30;;;;;;5001537;28;1662;-70
2023/11/06 08:27:57;;;;;;;;;;;21.30;67.20;;;;;;5000762;28;1478;-69
2023/11/06 08:30:23;;;;;;;;;;;21.40;67.20;;;;;;5003670;28;1832;-69
2023/11/06 08:32:48;;;;;;;;;;;21.40;67.20;;;;;;5001836;28;1357;-70
2023/11/06 08:35:14;;;;;;;;;;;21.40;67.10;;;;;;5000225;28;1346;-69
2023/11/06 08:37:39;;;;;;;;;;;21.40;67.10;;;;;;5001197;28;1310;-70
2023/11/06 08:40:05;;;;;;;;;;;21.40;67.10;;;;;;5001094;28;1519;-70
2023/11/06 08:42:31;;;;;;;;;;;21.40;67.10;;;;;;5001193;28;1926;-70
2023/11/06 08:44:57;;;;;;;;;;;21.50;67.10;;;;;;5003997;28;1387;-69
2023/11/06 08:47:23;;;;;;;;;;;21.50;67.00;;;;;;5002549;28;1364;-70
2023/11/06 08:49:49;;;;;;;;;;;21.40;67.00;;;;;;4999583;28;1486;-70
2023/11/06 08:52:14;;;;;;;;;;;21.50;67.00;;;;;;5006504;28;1525;-69
2023/11/06 08:54:45;;;;;;;;;;;21.40;67.00;;;;;;5002048;28;1241;-69
2023/11/06 08:57:13;;;;;;;;;;;21.50;67.00;;;;;;5000757;28;1319;-69
2023/11/06 08:59:39;;;;;;;;;;;21.50;67.10;;;;;;5000116;28;1506;-70
2023/11/06 09:02:05;;;;;;;;;;;21.50;67.10;;;;;;5000130;28;1289;-69
2023/11/06 09:04:30;;;;;;;;;;;21.50;67.10;;;;;;5002063;28;1934;-69
2023/11/06 09:06:57;;;;;;;;;;;21.40;67.10;;;;;;4996761;28;1377;-67
2023/11/06 09:09:22;;;;;;;;;;;21.40;67.10;;;;;;5006584;28;1510;-69
2023/11/06 09:11:48;;;;;;;;;;;21.40;67.10;;;;;;5000856;28;1431;-69
2023/11/06 09:14:14;;;;;;;;;;;21.40;67.10;;;;;;5003493;28;1535;-69
2023/11/06 09:16:39;;;;;;;;;;;21.50;67.20;;;;;;5001822;28;1258;-68
2023/11/06 09:19:05;;;;;;;;;;;21.40;67.10;;;;;;5001753;28;1320;-69
2023/11/06 09:21:31;;;;;;;;;;;21.40;67.10;;;;;;5000911;28;1454;-69
2023/11/06 09:23:56;;;;;;;;;;;21.40;67.10;;;;;;5001586;28;1989;-70
2023/11/06 09:26:22;;;;;;;;;;;21.50;67.10;;;;;;5003147;28;1945;-70
2023/11/06 09:28:51;;;;;;;;;;;21.50;67.10;;;;;;5004334;28;1930;-71
2023/11/06 09:31:20;;;;;;;;;;;21.50;67.10;;;;;;5004264;28;1379;-70
2023/11/06 09:33:52;;;;;;;;;;;21.50;67.10;;;;;;5003817;28;1234;-70
2023/11/06 09:36:17;;;;;;;;;;;21.50;67.10;;;;;;5004324;28;1314;-70
2023/11/06 09:38:43;;;;;;;;;;;21.50;67.10;;;;;;5024370;28;1587;-70
2023/11/06 09:41:08;;;;;;;;;;;21.50;67.10;;;;;;5004441;28;1392;-69
2023/11/06 09:43:34;;;;;;;;;;;21.50;67.10;;;;;;5005381;28;1972;-71
2023/11/06 09:46:00;;;;;;;;;;;21.50;67.10;;;;;;5005466;28;1494;-71
2023/11/06 09:48:28;;;;;;;;;;;21.50;67.10;;;;;;5005784;28;1530;-71
2023/11/06 09:50:56;;;;;;;;;;;21.50;67.10;;;;;;5008371;28;1477;-71
2023/11/06 09:53:23;;;;;;;;;;;21.50;67.10;;;;;;5003103;28;1525;-71
2023/11/06 09:55:48;;;;;;;;;;;21.50;67.10;;;;;;5005720;28;1437;-71
2023/11/06 09:58:14;;;;;;;;;;;21.50;67.20;;;;;;5018112;28;1235;-71
2023/11/06 10:00:39;;;;;;;;;;;21.40;67.20;;;;;;4999887;28;1330;-71
2023/11/06 10:03:05;;;;;;;;;;;21.40;67.20;;;;;;5002424;28;1961;-71
2023/11/06 10:05:30;;;;;;;;;;;21.40;67.30;;;;;;5000334;28;1463;-71
2023/11/06 10:07:56;;;;;;;;;;;21.40;67.30;;;;;;5002902;28;1326;-71
2023/11/06 10:10:22;;;;;;;;;;;21.40;67.30;;;;;;5001875;28;1207;-71
2023/11/06 10:13:06;;;;;;;;;;;21.40;67.40;;;;;;5005755;28;1502;-71
2023/11/06 10:15:32;;;;;;;;;;;21.40;67.40;;;;;;5000400;28;1144;-71
2023/11/06 10:18:13;;;;;;;;;;;21.40;67.40;;;;;;5007724;28;1394;-71
2023/11/06 10:20:42;;;;;;;;;;;21.40;67.40;;;;;;5007273;28;1297;-71
2023/11/06 10:23:07;;;;;;;;;;;21.40;67.40;;;;;;5005492;28;1902;-71
2023/11/06 10:25:33;;;;;;;;;;;21.40;67.40;;;;;;5000732;28;988;-71
2023/11/06 10:27:58;;;;;;;;;;;21.40;67.40;;;;;;5004882;28;1393;-71
2023/11/06 10:30:24;;;;;;;;;;;21.40;67.40;;;;;;5008342;28;1432;-71
2023/11/06 10:32:49;;;;;;;;;;;21.40;67.40;;;;;;5006573;28;1415;-69
2023/11/06 10:35:18;;;;;;;;;;;21.50;67.40;;;;;;5006927;28;1365;-70
2023/11/06 10:37:46;;;;;;;;;;;21.50;67.40;;;;;;5005509;28;1660;-70
2023/11/06 10:40:13;;;;;;;;;;;21.50;67.30;;;;;;5017911;28;1405;-70
2023/11/06 10:42:39;;;;;;;;;;;21.50;67.20;;;;;;5000548;28;1959;-68
2023/11/06 10:45:09;;;;;;;;;;;21.50;67.10;;;;;;5002812;28;2032;-71
2023/11/06 10:47:37;;;;;;;;;;;21.60;67.00;;;;;;5002704;28;1386;-70
2023/11/06 10:50:12;;;;;;;;;;;21.60;66.90;;;;;;5004711;28;1378;-68
2023/11/06 10:52:40;;;;;;;;;;;21.60;66.80;;;;;;5001632;28;1343;-68
2023/11/06 10:55:08;;;;;;;;;;;21.60;66.80;;;;;;5000087;28;1458;-68
2023/11/06 10:57:33;;;;;;;;;;;21.70;66.80;;;;;;5017384;28;1549;-69
2023/11/06 11:00:00;;;;;;;;;;;21.70;66.70;;;;;;5003772;28;1527;-69
2023/11/06 11:02:44;;;;;;;;;;;21.70;66.70;;;;;;4997500;28;1347;-69
2023/11/06 11:05:14;;;;;;;;;;;21.70;66.70;;;;;;5004408;28;1429;-69
2023/11/06 11:07:40;;;;;;;;;;;21.70;66.70;;;;;;5002343;28;2185;-70
2023/11/06 11:10:11;;;;;;;;;;;21.70;66.60;;;;;;5004096;28;1368;-70
2023/11/06 11:12:37;;;;;;;;;;;21.70;66.60;;;;;;5004472;28;1367;-70
2023/11/06 11:15:04;;;;;;;;;;;21.70;66.70;;;;;;5006909;28;1240;-71
2023/11/06 11:17:29;;;;;;;;;;;21.70;66.70;;;;;;5001153;28;1202;-69
2023/11/06 11:19:56;;;;;;;;;;;21.70;66.70;;;;;;5005425;28;1454;-69
2023/11/06 11:22:24;;;;;;;;;;;21.70;67.70;;;;;;5002147;28;1511;-70
2023/11/06 11:24:50;;;;;;;;;;;21.70;66.50;;;;;;5004866;28;1960;-71
2023/11/06 11:27:22;;;;;;;;;;;21.70;66.40;;;;;;5000512;28;1510;-69
2023/11/06 11:29:58;;;;;;;;;;;21.70;66.30;;;;;;5001352;28;1323;-70
2023/11/06 11:32:50;;;;;;;;;;;21.70;66.40;;;;;;5000074;28;1406;-70
2023/11/06 11:35:17;;;;;;;;;;;21.70;67.10;;;;;;5002675;28;1418;-70
2023/11/06 11:37:58;;;;;;;;;;;21.70;66.40;;;;;;5001888;28;1219;-70
2023/11/06 11:40:56;;;;;;;;;;;21.70;66.40;;;;;;5005351;28;1827;-68
2023/11/06 11:43:24;;;;;;;;;;;21.70;66.50;;;;;;5001611;28;1977;-68
2023/11/06 11:45:50;;;;;;;;;;;21.70;66.40;;;;;;5001655;28;1424;-68
2023/11/06 11:48:16;;;;;;;;;;;21.70;66.40;;;;;;5004130;28;1230;-68
2023/11/06 11:50:42;;;;;;;;;;;21.70;66.40;;;;;;5006333;28;1384;-68
2023/11/06 11:53:08;;;;;;;;;;;21.70;66.40;;;;;;5001425;28;1815;-68
2023/11/06 11:55:37;;;;;;;;;;;21.80;66.40;;;;;;5001147;28;1098;-68
2023/11/06 11:58:04;;;;;;;;;;;21.80;66.40;;;;;;4998522;28;1324;-69
2023/11/06 12:00:34;;;;;;;;;;;21.80;66.40;;;;;;4998470;28;1459;-69
2023/11/06 12:03:11;;;;;;;;;;;21.80;66.30;;;;;;5001546;28;1978;-68
2023/11/06 12:05:37;;;;;;;;;;;21.80;66.30;;;;;;5000226;28;1327;-71
2023/11/06 12:08:15;;;;;;;;;;;21.80;66.30;;;;;;4986559;28;1537;-69
2023/11/06 12:10:42;;;;;;;;;;;21.80;66.30;;;;;;5001645;28;1355;-70
2023/11/06 12:13:14;;;;;;;;;;;21.80;66.20;;;;;;5015716;28;1418;-70
2023/11/06 12:15:39;;;;;;;;;;;21.80;66.20;;;;;;5016037;28;1507;-71
2023/11/06 12:18:06;;;;;;;;;;;21.80;66.20;;;;;;5001045;28;1464;-70
2023/11/06 12:20:32;;;;;;;;;;;21.80;66.30;;;;;;5000338;28;1316;-70
2023/11/06 12:23:00;;;;;;;;;;;21.70;66.30;;;;;;4998798;28;1982;-70
2023/11/06 12:25:28;;;;;;;;;;;21.70;66.30;;;;;;5000810;28;1409;-70
2023/11/06 12:27:53;;;;;;;;;;;21.80;66.30;;;;;;5017794;28;1280;-70
2023/11/06 12:30:19;;;;;;;;;;;21.80;66.30;;;;;;5015102;28;1246;-71
2023/11/06 12:32:46;;;;;;;;;;;21.80;66.30;;;;;;5000567;28;1877;-71
2023/11/06 12:35:19;;;;;;;;;;;21.80;66.30;;;;;;5002136;28;1509;-70
2023/11/06 12:37:51;;;;;;;;;;;21.80;66.40;;;;;;5000958;28;1976;-70
2023/11/06 12:40:17;;;;;;;;;;;21.80;66.40;;;;;;5001795;28;2457;-70
2023/11/06 12:42:45;;;;;;;;;;;21.80;66.40;;;;;;5004368;28;1999;-70
2023/11/06 12:45:30;;;;;;;;;;;21.80;66.40;;;;;;5001708;28;2146;-71
2023/11/06 12:47:56;;;;;;;;;;;21.80;66.40;;;;;;5002673;28;1996;-70
2023/11/06 12:50:21;;;;;;;;;;;21.80;66.40;;;;;;5001731;28;1551;-70
2023/11/06 12:52:50;;;;;;;;;;;21.80;66.30;;;;;;5001433;28;1198;-70
2023/11/06 12:55:15;;;;;;;;;;;21.80;66.30;;;;;;5000992;28;1229;-71
2023/11/06 12:57:41;;;;;;;;;;;21.80;66.40;;;;;;5003152;28;1137;-70
2023/11/06 13:00:14;;;;;;;;;;;21.80;66.40;;;;;;5003258;28;1004;-70
2023/11/06 13:02:40;;;;;;;;;;;21.80;66.40;;;;;;5016299;28;1910;-71
2023/11/06 13:05:06;;;;;;;;;;;21.80;66.40;;;;;;5020671;28;2111;-70
2023/11/06 13:07:33;;;;;;;;;;;21.80;66.40;;;;;;5004101;28;1132;-71
2023/11/06 13:09:59;;;;;;;;;;;21.70;66.40;;;;;;5003597;28;1380;-69
2023/11/06 13:12:25;;;;;;;;;;;21.80;66.50;;;;;;5003342;28;1343;-69
2023/11/06 13:14:51;;;;;;;;;;;21.70;66.50;;;;;;5008752;28;1526;-71
2023/11/06 13:17:17;;;;;;;;;;;21.80;66.50;;;;;;5004303;28;1560;-69
2023/11/06 13:19:42;;;;;;;;;;;21.70;66.50;;;;;;5005518;28;1327;-69
2023/11/06 13:22:11;;;;;;;;;;;21.70;66.50;;;;;;5003773;28;1508;-69
2023/11/06 13:24:36;;;;;;;;;;;21.70;66.60;;;;;;5004062;28;1962;-69
2023/11/06 13:27:02;;;;;;;;;;;21.70;66.50;;;;;;5008671;28;1370;-70
2023/11/06 13:29:29;;;;;;;;;;;21.70;66.60;;;;;;5006744;28;1437;-71
2023/11/06 13:31:54;;;;;;;;;;;21.70;66.50;;;;;;5006713;28;1397;-70
2023/11/06 13:34:20;;;;;;;;;;;21.70;66.60;;;;;;5005391;28;1350;-70
2023/11/06 13:36:49;;;;;;;;;;;21.70;66.50;;;;;;5001897;28;1282;-70
2023/11/06 13:39:19;;;;;;;;;;;21.80;66.60;;;;;;5002974;28;1342;-70
2023/11/06 13:41:46;;;;;;;;;;;21.80;66.50;;;;;;5003124;28;1632;-70
2023/11/06 13:44:12;;;;;;;;;;;21.70;66.50;;;;;;5004316;28;1989;-70
2023/11/06 13:46:37;;;;;;;;;;;21.80;66.50;;;;;;5002177;28;1358;-67
2023/11/06 13:49:04;;;;;;;;;;;21.80;66.40;;;;;;5004798;28;1301;-69
2023/11/06 13:51:30;;;;;;;;;;;21.80;66.40;;;;;;5006299;28;1307;-68
2023/11/06 13:54:03;;;;;;;;;;;21.80;66.40;;;;;;5003281;28;1528;-69
2023/11/06 13:56:34;;;;;;;;;;;21.80;66.40;;;;;;5019147;28;1432;-68
2023/11/06 13:59:00;;;;;;;;;;;21.80;66.40;;;;;;5006144;28;1342;-69
2023/11/06 14:01:44;;;;;;;;;;;21.80;66.30;;;;;;5003938;28;1401;-70
2023/11/06 14:04:10;;;;;;;;;;;21.80;66.30;;;;;;5004829;28;1911;-70
2023/11/06 14:06:36;;;;;;;;;;;21.80;66.30;;;;;;5003017;28;1573;-69
2023/11/06 14:09:15;;;;;;;;;;;21.80;66.30;;;;;;5002015;28;1450;-69
2023/11/06 14:11:41;;;;;;;;;;;21.80;66.30;;;;;;5004231;28;1411;-70
2023/11/06 14:14:06;;;;;;;;;;;21.80;66.30;;;;;;5004585;28;1358;-69
2023/11/06 14:16:32;;;;;;;;;;;21.80;66.30;;;;;;5002745;28;1387;-68
2023/11/06 14:18:58;;;;;;;;;;;21.80;66.30;;;;;;5003532;28;1386;-68
2023/11/06 14:21:23;;;;;;;;;;;21.80;66.30;;;;;;5002398;28;1374;-68
2023/11/06 14:23:49;;;;;;;;;;;21.80;66.40;;;;;;5003069;28;1906;-70
2023/11/06 14:26:16;;;;;;;;;;;21.80;66.40;;;;;;5011716;28;1585;-69
2023/11/06 14:28:41;;;;;;;;;;;21.80;66.40;;;;;;5020068;28;1340;-69